createdAt,value
2024-02-09T00:00:33.522Z,3.47
2024-02-09T00:03:01.953Z,3.45
2024-02-09T00:05:33.260Z,3.29
2024-02-09T00:08:06.168Z,3.16
2024-02-09T00:10:38.469Z,3.34
2024-02-09T00:13:06.981Z,3.52
2024-02-09T00:15:34.898Z,3.44
2024-02-09T00:18:04.898Z,3.31
2024-02-09T00:20:32.595Z,3.17
2024-02-09T00:22:59.961Z,3.32
2024-02-09T00:25:27.973Z,3.55
2024-02-09T00:27:55.670Z,3.33
2024-02-09T00:30:23.267Z,3.13
2024-02-09T00:32:52.800Z,3.16
2024-02-09T00:35:21.669Z,3.29
2024-02-09T00:37:49.770Z,3.22
2024-02-09T00:40:17.005Z,3.08
2024-02-09T00:42:44.442Z,3.04
2024-02-09T00:45:14.241Z,3.18
2024-02-09T00:47:41.327Z,3.01
2024-02-09T00:50:11.551Z,2.97
2024-02-09T00:52:38.729Z,3.01
2024-02-09T00:55:06.566Z,2.93
2024-02-09T00:57:33.702Z,3.06
2024-02-09T01:00:01.230Z,3.53
2024-02-09T01:02:30.808Z,3.34
2024-02-09T01:04:58.267Z,3.11
2024-02-09T01:07:26.502Z,3.35
2024-02-09T01:09:53.632Z,3.11
2024-02-09T01:12:39.339Z,3.21
2024-02-09T01:15:25.266Z,3.45
2024-02-09T01:18:11.134Z,3.13
2024-02-09T01:20:56.734Z,3.40
2024-02-09T01:23:42.407Z,3.28
2024-02-09T01:26:28.044Z,3.10
2024-02-09T01:29:14.366Z,3.21
2024-02-09T01:31:59.692Z,3.22
2024-02-09T01:34:45.484Z,3.20
2024-02-09T01:37:31.505Z,3.21
2024-02-09T01:40:17.066Z,3.21
2024-02-09T01:43:03.017Z,3.20
2024-02-09T01:45:48.858Z,3.50
2024-02-09T01:48:34.856Z,3.62
2024-02-09T01:51:20.399Z,3.23
2024-02-09T01:54:07.409Z,3.41
2024-02-09T01:56:52.887Z,3.31
2024-02-09T01:59:38.654Z,3.16
2024-02-09T02:02:24.196Z,3.14
2024-02-09T02:05:10.129Z,3.24
2024-02-09T02:07:57.278Z,3.41
2024-02-09T02:10:42.723Z,3.21
2024-02-09T02:13:28.206Z,3.38
2024-02-09T02:16:18.192Z,3.33
2024-02-09T02:19:04.610Z,3.17
2024-02-09T02:21:56.534Z,3.18
2024-02-09T02:24:45.573Z,3.28
2024-02-09T02:27:31.953Z,3.18
2024-02-09T02:30:17.613Z,3.36
2024-02-09T02:33:03.378Z,3.44
2024-02-09T02:35:48.889Z,3.19
2024-02-09T02:38:34.512Z,3.27
2024-02-09T02:41:19.628Z,3.36
2024-02-09T02:43:46.958Z,3.52
2024-02-09T02:46:17.209Z,3.35
2024-02-09T02:49:07.081Z,3.39
2024-02-09T02:51:53.048Z,3.35
2024-02-09T02:54:38.925Z,3.22
2024-02-09T02:57:25.286Z,3.07
2024-02-09T03:00:12.723Z,3.09
2024-02-09T03:02:59.704Z,3.22
2024-02-09T03:05:29.645Z,3.27
2024-02-09T03:10:28.257Z,3.06
2024-02-09T03:12:55.341Z,3.13
2024-02-09T03:15:25.233Z,3.18
2024-02-09T03:17:55.657Z,3.15
2024-02-09T03:20:26.305Z,3.26
2024-02-09T03:22:53.448Z,3.20
2024-02-09T03:25:22.589Z,3.14
2024-02-09T03:27:51.408Z,3.24
2024-02-09T03:30:19.299Z,3.11
2024-02-09T03:32:47.369Z,2.94
2024-02-09T03:35:14.687Z,2.98
2024-02-09T03:37:45.979Z,2.97
2024-02-09T03:40:14.073Z,3.04
2024-02-09T03:42:42.774Z,3.00
2024-02-09T03:45:09.976Z,2.95
2024-02-09T03:47:38.763Z,2.89
2024-02-09T03:50:06.368Z,2.98
2024-02-09T03:52:33.915Z,2.95
2024-02-09T03:55:01.008Z,2.77
2024-02-09T03:57:30.055Z,2.92
2024-02-09T03:59:57.488Z,2.99
2024-02-09T04:02:24.665Z,3.09
2024-02-09T04:04:51.908Z,2.99
2024-02-09T04:07:22.691Z,3.07
2024-02-09T04:10:14.367Z,3.07
2024-02-09T04:12:38.013Z,3.22
2024-02-09T04:15:06.004Z,3.04
2024-02-09T04:17:33.296Z,3.29
2024-02-09T04:20:00.419Z,2.92
2024-02-09T04:22:29.072Z,2.90
2024-02-09T04:24:58.371Z,2.93
2024-02-09T04:27:25.537Z,3.06
2024-02-09T04:29:53.408Z,2.87
2024-02-09T04:32:20.296Z,2.99
2024-02-09T04:34:47.567Z,3.05
2024-02-09T04:37:14.669Z,2.82
2024-02-09T04:39:44.855Z,3.04
2024-02-09T04:42:12.190Z,2.94
2024-02-09T04:44:39.812Z,2.82
2024-02-09T04:47:06.877Z,2.82
2024-02-09T04:49:34.093Z,2.74
2024-02-09T04:52:01.794Z,2.90
2024-02-09T04:54:29.064Z,2.90
2024-02-09T04:56:57.566Z,3.07
2024-02-09T04:59:31.989Z,3.11
2024-02-09T05:01:59.432Z,3.29
2024-02-09T05:04:26.628Z,3.28
2024-02-09T05:06:53.902Z,3.33
2024-02-09T05:09:25.138Z,3.42
2024-02-09T05:11:52.103Z,3.26
2024-02-09T05:14:21.226Z,3.40
2024-02-09T05:16:48.425Z,3.30
2024-02-09T05:19:15.564Z,3.24
2024-02-09T05:21:43.186Z,3.32
2024-02-09T05:24:10.265Z,3.58
2024-02-09T05:26:37.419Z,3.62
2024-02-09T05:29:04.620Z,3.59
2024-02-09T05:31:32.122Z,3.44
2024-02-09T05:33:59.776Z,3.22
2024-02-09T05:36:28.912Z,3.48
2024-02-09T05:39:02.105Z,3.51
2024-02-09T05:41:31.706Z,3.63
2024-02-09T05:43:59.686Z,3.51
2024-02-09T05:46:27.391Z,3.38
2024-02-09T05:48:57.465Z,3.36
2024-02-09T05:51:25.591Z,3.57
2024-02-09T05:53:53.282Z,3.62
2024-02-09T05:56:22.577Z,3.61
2024-02-09T05:58:51.104Z,3.60
2024-02-09T06:01:18.960Z,3.67
2024-02-09T06:03:46.082Z,3.77
2024-02-09T06:06:13.987Z,3.50
2024-02-09T06:08:41.111Z,3.52
2024-02-09T06:11:08.185Z,3.67
2024-02-09T06:13:35.636Z,3.55
2024-02-09T06:16:02.834Z,3.56
2024-02-09T06:18:30.449Z,3.72
2024-02-09T06:20:59.786Z,3.68
2024-02-09T06:23:26.813Z,3.60
2024-02-09T06:25:54.080Z,3.66
2024-02-09T06:28:21.119Z,3.72
2024-02-09T06:30:49.104Z,3.66
2024-02-09T06:33:17.615Z,3.48
2024-02-09T06:35:45.026Z,3.36
2024-02-09T06:38:15.197Z,3.49
2024-02-09T06:40:42.280Z,3.66
2024-02-09T06:43:09.291Z,3.61
2024-02-09T06:45:36.773Z,3.59
2024-02-09T06:48:07.706Z,3.47
2024-02-09T06:50:36.205Z,3.56
2024-02-09T06:53:07.657Z,3.33
2024-02-09T06:55:37.873Z,3.49
2024-02-09T06:58:05.600Z,3.33
2024-02-09T07:00:36.917Z,3.39
2024-02-09T07:03:04.733Z,3.65
2024-02-09T07:05:31.994Z,3.66
2024-02-09T07:07:59.537Z,3.61
2024-02-09T07:10:26.769Z,3.66
2024-02-09T07:12:55.539Z,3.48
2024-02-09T07:15:22.847Z,3.41
2024-02-09T07:17:51.488Z,3.62
2024-02-09T07:20:19.331Z,3.59
2024-02-09T07:22:47.469Z,3.71
2024-02-09T07:25:14.595Z,3.45
2024-02-09T07:27:41.659Z,3.67
2024-02-09T07:30:09.575Z,3.93
2024-02-09T07:32:37.168Z,3.70
2024-02-09T07:35:05.921Z,3.81
2024-02-09T07:37:33.211Z,3.83
2024-02-09T07:40:03.760Z,3.75
2024-02-09T07:42:31.282Z,3.84
2024-02-09T07:45:00.691Z,3.87
2024-02-09T07:47:30.238Z,3.92
2024-02-09T07:49:57.490Z,3.88
2024-02-09T07:52:29.680Z,3.60
2024-02-09T07:54:58.118Z,3.74
2024-02-09T07:57:27.208Z,3.91
2024-02-09T07:59:54.488Z,3.79
2024-02-09T08:02:21.827Z,3.76
2024-02-09T08:04:49.918Z,3.62
2024-02-09T08:07:21.998Z,3.58
2024-02-09T08:09:49.161Z,3.58
2024-02-09T08:12:19.462Z,3.78
2024-02-09T08:14:48.188Z,3.84
2024-02-09T08:17:19.474Z,3.87
2024-02-09T08:19:46.551Z,3.63
2024-02-09T08:22:13.928Z,3.72
2024-02-09T08:24:41.064Z,3.83
2024-02-09T08:27:09.176Z,4.04
2024-02-09T08:29:37.673Z,4.07
2024-02-09T08:32:07.576Z,3.98
2024-02-09T08:34:34.974Z,3.93
2024-02-09T08:37:02.053Z,3.92
2024-02-09T08:39:29.762Z,4.05
2024-02-09T08:41:56.732Z,3.95
2024-02-09T08:44:23.700Z,3.90
2024-02-09T08:46:51.636Z,4.05
2024-02-09T08:49:19.325Z,3.90
2024-02-09T08:51:46.534Z,4.00
2024-02-09T08:54:15.688Z,3.89
2024-02-09T08:56:43.088Z,4.01
2024-02-09T08:59:12.053Z,3.98
2024-02-09T09:01:40.858Z,4.15
2024-02-09T09:04:08.414Z,3.97
2024-02-09T09:06:35.691Z,4.24
2024-02-09T09:09:02.803Z,4.26
2024-02-09T09:11:30.038Z,4.41
2024-02-09T09:13:57.194Z,4.18
2024-02-09T09:16:24.286Z,4.36
2024-02-09T09:18:51.983Z,4.51
2024-02-09T09:21:19.919Z,4.37
2024-02-09T09:23:46.867Z,4.49
2024-02-09T09:26:22.410Z,4.39
2024-02-09T09:28:55.843Z,4.29
2024-02-09T09:31:23.025Z,4.47
2024-02-09T09:33:50.071Z,4.43
2024-02-09T09:36:17.194Z,4.51
2024-02-09T09:38:46.462Z,4.68
2024-02-09T09:41:14.116Z,4.43
2024-02-09T09:43:41.661Z,4.42
2024-02-09T09:46:13.262Z,4.33
2024-02-09T09:48:40.974Z,4.30
2024-02-09T09:51:09.332Z,4.47
2024-02-09T09:53:40.818Z,4.69
2024-02-09T09:56:08.688Z,4.72
2024-02-09T09:58:36.907Z,4.81
2024-02-09T10:01:12.162Z,4.50
2024-02-09T10:03:40.485Z,4.66
2024-02-09T10:06:08.043Z,4.62
2024-02-09T10:08:40.042Z,4.58
2024-02-09T10:11:07.990Z,4.65
2024-02-09T10:13:36.761Z,4.74
2024-02-09T10:16:05.093Z,4.92
2024-02-09T10:18:37.385Z,4.94
2024-02-09T10:21:09.511Z,5.14
2024-02-09T10:23:37.708Z,5.09
2024-02-09T10:26:06.980Z,4.99
2024-02-09T10:28:37.227Z,5.00
2024-02-09T10:31:05.477Z,5.01
2024-02-09T10:33:32.941Z,5.14
2024-02-09T10:36:03.385Z,5.33
2024-02-09T10:38:32.565Z,5.29
2024-02-09T10:41:03.564Z,5.48
2024-02-09T10:43:36.321Z,5.47
2024-02-09T10:46:06.153Z,5.47
2024-02-09T10:48:38.950Z,5.44
2024-02-09T10:51:10.396Z,5.55
2024-02-09T10:53:50.836Z,5.34
2024-02-09T10:56:20.428Z,5.56
2024-02-09T10:58:48.667Z,5.44
2024-02-09T11:01:15.969Z,5.48
2024-02-09T11:03:43.448Z,5.60
2024-02-09T11:08:39.337Z,5.73
2024-02-09T11:11:06.478Z,5.69
2024-02-09T11:13:34.613Z,5.63
2024-02-09T11:16:03.269Z,5.74
2024-02-09T11:18:35.578Z,5.90
2024-02-09T11:21:07.156Z,5.80
2024-02-09T11:23:36.886Z,5.76
2024-02-09T11:26:08.989Z,5.73
2024-02-09T11:28:36.737Z,5.87
2024-02-09T11:31:13.166Z,5.90
2024-02-09T11:33:44.552Z,5.91
2024-02-09T11:36:11.579Z,6.10
2024-02-09T11:38:38.683Z,6.17
2024-02-09T11:41:06.410Z,6.27
2024-02-09T11:43:34.710Z,6.27
2024-02-09T11:46:04.274Z,6.25
2024-02-09T11:48:31.790Z,6.32
2024-02-09T11:51:02.227Z,6.17
2024-02-09T11:53:30.714Z,6.24
2024-02-09T11:55:57.907Z,6.45
2024-02-09T11:58:26.989Z,6.52
2024-02-09T12:00:54.153Z,6.61
2024-02-09T12:03:21.253Z,6.72
2024-02-09T12:05:52.092Z,6.75
2024-02-09T12:08:20.630Z,6.82
2024-02-09T12:10:48.362Z,6.69
2024-02-09T12:13:15.495Z,6.73
2024-02-09T12:15:42.494Z,6.86
2024-02-09T12:18:10.404Z,6.83
2024-02-09T12:20:37.623Z,6.83
2024-02-09T12:23:05.702Z,6.79
2024-02-09T12:25:39.344Z,7.09
2024-02-09T12:28:11.554Z,7.04
2024-02-09T12:30:40.941Z,7.19
2024-02-09T12:33:09.739Z,7.12
2024-02-09T12:35:36.873Z,7.13
2024-02-09T12:38:05.276Z,7.09
2024-02-09T12:40:33.340Z,7.26
2024-02-09T12:43:02.598Z,7.22
2024-02-09T12:45:32.550Z,7.37
2024-02-09T12:47:59.896Z,7.34
2024-02-09T12:50:29.180Z,7.40
2024-02-09T12:52:56.991Z,7.56
2024-02-09T12:55:26.913Z,7.50
2024-02-09T12:57:56.491Z,7.55
2024-02-09T13:00:25.070Z,7.73
2024-02-09T13:02:53.827Z,7.78
2024-02-09T13:05:21.369Z,7.90
2024-02-09T13:07:49.994Z,7.91
2024-02-09T13:10:17.545Z,7.79
2024-02-09T13:12:45.693Z,7.80
2024-02-09T13:15:13.223Z,7.87
2024-02-09T13:17:40.953Z,7.98
2024-02-09T13:20:10.542Z,8.04
2024-02-09T13:22:41.157Z,7.96
2024-02-09T13:25:15.293Z,8.04
2024-02-09T13:27:43.426Z,7.98
2024-02-09T13:30:12.296Z,8.07
2024-02-09T13:32:40.036Z,7.97
2024-02-09T13:35:12.516Z,8.16
2024-02-09T13:37:46.152Z,8.04
2024-02-09T13:40:18.021Z,8.17
2024-02-09T13:42:51.175Z,8.14
2024-02-09T13:45:20.314Z,8.26
2024-02-09T13:47:48.938Z,8.36
2024-02-09T13:50:16.674Z,8.53
2024-02-09T13:52:47.455Z,8.47
2024-02-09T13:55:15.098Z,8.44
2024-02-09T13:57:45.844Z,8.22
2024-02-09T14:00:14.618Z,8.20
2024-02-09T14:02:42.040Z,8.18
2024-02-09T14:05:10.389Z,8.11
2024-02-09T14:07:40.077Z,7.99
2024-02-09T14:10:08.982Z,7.91
2024-02-09T14:12:36.466Z,7.91
2024-02-09T14:15:04.300Z,7.91
2024-02-09T14:17:35.077Z,7.81
2024-02-09T14:20:06.596Z,7.81
2024-02-09T14:22:33.936Z,7.74
2024-02-09T14:25:01.727Z,7.83
2024-02-09T14:27:30.437Z,7.84
2024-02-09T14:29:59.561Z,7.78
2024-02-09T14:32:26.852Z,7.72
2024-02-09T14:34:54.222Z,7.72
2024-02-09T14:37:22.780Z,7.57
2024-02-09T14:39:50.054Z,7.68
2024-02-09T14:42:17.142Z,7.70
2024-02-09T14:44:49.355Z,7.69
2024-02-09T14:47:18.000Z,7.68
2024-02-09T14:49:50.098Z,7.72
2024-02-09T14:52:19.356Z,7.65
2024-02-09T14:54:47.577Z,7.64
2024-02-09T14:57:15.419Z,7.59
2024-02-09T14:59:43.204Z,7.69
2024-02-09T15:02:14.611Z,7.72
2024-02-09T15:04:43.924Z,7.80
2024-02-09T15:07:12.473Z,7.83
2024-02-09T15:09:41.259Z,7.75
2024-02-09T15:12:08.277Z,7.78
2024-02-09T15:14:37.098Z,7.79
2024-02-09T15:17:07.284Z,7.81
2024-02-09T15:19:54.158Z,7.85
2024-02-09T15:22:21.323Z,7.70
2024-02-09T15:24:48.379Z,7.71
2024-02-09T15:27:16.193Z,7.70
2024-02-09T15:29:43.331Z,7.79
2024-02-09T15:32:14.453Z,7.85
2024-02-09T15:34:45.677Z,7.84
2024-02-09T15:37:13.841Z,7.71
2024-02-09T15:39:41.511Z,7.67
2024-02-09T15:42:09.978Z,7.76
2024-02-09T15:44:38.299Z,7.82
2024-02-09T15:47:05.406Z,7.84
2024-02-09T15:49:34.198Z,7.81
2024-02-09T15:52:02.498Z,7.86
2024-02-09T15:54:31.673Z,7.84
2024-02-09T15:56:59.256Z,7.84
2024-02-09T15:59:26.330Z,7.86
2024-02-09T16:01:53.805Z,7.97
2024-02-09T16:04:22.065Z,7.94
2024-02-09T16:06:50.373Z,7.85
2024-02-09T16:09:19.278Z,7.92
2024-02-09T16:11:49.427Z,7.91
2024-02-09T16:14:16.445Z,7.92
2024-02-09T16:16:45.122Z,7.96
2024-02-09T16:19:12.408Z,8.01
2024-02-09T16:21:42.200Z,7.92
2024-02-09T16:24:11.136Z,7.99
2024-02-09T16:26:40.124Z,8.09
2024-02-09T16:29:10.197Z,8.09
2024-02-09T16:31:39.592Z,8.03
2024-02-09T16:34:07.276Z,8.01
2024-02-09T16:36:34.748Z,8.09
2024-02-09T16:39:01.711Z,7.95
2024-02-09T16:41:28.718Z,8.08
2024-02-09T16:43:55.718Z,7.97
2024-02-09T16:46:26.503Z,7.96
2024-02-09T16:48:54.079Z,7.99
2024-02-09T16:51:21.098Z,7.95
2024-02-09T16:53:47.999Z,7.98
2024-02-09T16:56:15.321Z,7.82
2024-02-09T16:58:42.613Z,7.71
2024-02-09T17:01:09.987Z,7.83
2024-02-09T17:03:37.425Z,7.81
2024-02-09T17:06:06.018Z,7.87
2024-02-09T17:08:33.086Z,7.82
2024-02-09T17:11:00.523Z,7.76
2024-02-09T17:13:27.957Z,7.70
2024-02-09T17:15:55.014Z,7.61
2024-02-09T17:18:22.042Z,7.57
2024-02-09T17:20:49.263Z,7.64
2024-02-09T17:23:16.568Z,7.53
2024-02-09T17:25:43.553Z,7.57
2024-02-09T17:28:11.840Z,7.54
2024-02-09T17:30:39.199Z,7.57
2024-02-09T17:33:06.613Z,7.52
2024-02-09T17:35:33.896Z,7.58
2024-02-09T17:38:01.157Z,7.53
2024-02-09T17:40:28.350Z,7.52
2024-02-09T17:42:57.484Z,7.40
2024-02-09T17:45:24.577Z,7.52
2024-02-09T17:47:54.852Z,7.25
2024-02-09T17:50:22.928Z,7.26
2024-02-09T17:52:53.940Z,7.16
2024-02-09T17:55:21.690Z,7.25
2024-02-09T17:57:51.128Z,7.18
2024-02-09T18:00:20.044Z,7.13
2024-02-09T18:02:47.323Z,7.09
2024-02-09T18:05:14.543Z,7.22
2024-02-09T18:07:41.817Z,7.18
2024-02-09T18:10:09.361Z,6.96
2024-02-09T18:12:36.606Z,7.06
2024-02-09T18:15:03.779Z,6.98
2024-02-09T18:17:31.064Z,6.96
2024-02-09T18:19:58.145Z,7.01
2024-02-09T18:22:25.708Z,6.93
2024-02-09T18:24:53.243Z,7.02
2024-02-09T18:27:20.327Z,7.04
2024-02-09T18:29:47.403Z,7.04
2024-02-09T18:32:14.584Z,7.05
2024-02-09T18:34:41.852Z,7.03
2024-02-09T18:37:09.390Z,6.99
2024-02-09T18:39:36.762Z,6.87
2024-02-09T18:42:03.949Z,6.99
2024-02-09T18:44:31.218Z,7.03
2024-02-09T18:46:58.522Z,7.15
2024-02-09T18:49:30.702Z,7.10
2024-02-09T18:52:00.895Z,7.08
2024-02-09T18:54:28.222Z,6.88
2024-02-09T18:56:55.700Z,6.89
2024-02-09T18:59:22.794Z,6.79
2024-02-09T19:01:49.831Z,6.89
2024-02-09T19:04:19.773Z,6.86
2024-02-09T19:06:47.125Z,6.68
2024-02-09T19:09:14.652Z,6.70
2024-02-09T19:11:43.845Z,6.41
2024-02-09T19:14:12.166Z,6.58
2024-02-09T19:16:40.187Z,6.38
2024-02-09T19:19:10.347Z,6.60
2024-02-09T19:21:37.586Z,6.53
2024-02-09T19:24:04.913Z,6.50
2024-02-09T19:26:34.876Z,6.40
2024-02-09T19:29:02.449Z,6.49
2024-02-09T19:31:30.765Z,6.44
2024-02-09T19:33:58.372Z,6.16
2024-02-09T19:36:25.490Z,6.27
2024-02-09T19:38:52.724Z,6.38
2024-02-09T19:41:23.160Z,6.31
2024-02-09T19:43:51.987Z,6.30
2024-02-09T19:46:23.374Z,6.24
2024-02-09T19:48:53.015Z,6.19
2024-02-09T19:51:22.063Z,6.12
2024-02-09T19:53:49.035Z,6.05
2024-02-09T19:56:16.087Z,6.06
2024-02-09T19:58:43.116Z,6.15
2024-02-09T20:01:12.372Z,6.02
2024-02-09T20:03:39.860Z,6.04
2024-02-09T20:06:07.437Z,5.84
2024-02-09T20:08:34.598Z,5.91
2024-02-09T20:11:02.746Z,5.86
2024-02-09T20:13:29.839Z,5.63
2024-02-09T20:16:04.370Z,5.60
2024-02-09T20:18:32.970Z,5.73
2024-02-09T20:21:00.157Z,5.77
2024-02-09T20:23:28.159Z,5.70
2024-02-09T20:25:55.586Z,5.75
2024-02-09T20:28:22.892Z,5.72
2024-02-09T20:30:49.871Z,5.49
2024-02-09T20:33:20.500Z,5.51
2024-02-09T20:35:52.690Z,5.57
2024-02-09T20:38:20.013Z,5.57
2024-02-09T20:40:47.188Z,5.63
2024-02-09T20:43:14.559Z,5.53
2024-02-09T20:45:41.781Z,5.52
2024-02-09T20:48:09.443Z,5.56
2024-02-09T20:50:39.352Z,5.39
2024-02-09T20:53:07.911Z,5.46
2024-02-09T20:55:39.062Z,5.49
2024-02-09T20:58:09.026Z,5.50
2024-02-09T21:00:40.269Z,5.28
2024-02-09T21:03:09.669Z,5.27
2024-02-09T21:05:39.487Z,5.19
2024-02-09T21:08:07.845Z,5.28
2024-02-09T21:10:37.014Z,5.26
2024-02-09T21:13:04.616Z,5.20
2024-02-09T21:15:32.551Z,5.17
2024-02-09T21:18:00.575Z,5.19
2024-02-09T21:20:28.982Z,5.14
2024-02-09T21:22:57.233Z,5.23
2024-02-09T21:25:25.403Z,5.29
2024-02-09T21:27:53.783Z,5.27
2024-02-09T21:30:25.677Z,5.31
2024-02-09T21:32:58.677Z,5.33
2024-02-09T21:35:32.344Z,5.22
2024-02-09T21:38:00.957Z,5.18
2024-02-09T21:40:32.305Z,5.26
2024-02-09T21:43:02.252Z,5.12
2024-02-09T21:45:30.044Z,5.12
2024-02-09T21:47:57.177Z,4.94
2024-02-09T21:50:25.287Z,4.82
2024-02-09T21:52:53.143Z,4.78
2024-02-09T21:55:21.210Z,4.91
2024-02-09T21:57:48.882Z,5.07
2024-02-09T22:00:16.410Z,4.85
2024-02-09T22:02:44.699Z,4.99
2024-02-09T22:05:13.001Z,4.78
2024-02-09T22:07:40.513Z,4.77
2024-02-09T22:10:07.779Z,4.88
2024-02-09T22:12:36.202Z,4.86
2024-02-09T22:15:04.395Z,4.88
2024-02-09T22:17:36.130Z,4.94
2024-02-09T22:20:07.267Z,4.81
2024-02-09T22:22:35.004Z,4.82
2024-02-09T22:25:03.171Z,4.97
2024-02-09T22:27:33.565Z,4.99
2024-02-09T22:30:07.832Z,4.89
2024-02-09T22:32:41.029Z,4.95
2024-02-09T22:35:13.033Z,4.89
2024-02-09T22:37:42.133Z,5.08
2024-02-09T22:40:15.743Z,4.75
2024-02-09T22:42:44.461Z,4.75
2024-02-09T22:45:13.345Z,4.80
2024-02-09T22:47:42.409Z,4.63
2024-02-09T22:50:12.864Z,4.57
2024-02-09T22:52:40.836Z,4.59
2024-02-09T22:55:08.509Z,4.51
2024-02-09T22:57:35.680Z,4.70
2024-02-09T23:00:25.180Z,4.57
2024-02-09T23:02:52.190Z,4.49
2024-02-09T23:05:19.402Z,4.51
2024-02-09T23:07:46.857Z,4.54
2024-02-09T23:10:15.801Z,4.53
2024-02-09T23:12:43.573Z,4.44
2024-02-09T23:15:21.939Z,4.51
2024-02-09T23:17:51.890Z,4.61
2024-02-09T23:20:22.447Z,4.34
2024-02-09T23:22:52.220Z,4.53
2024-02-09T23:25:20.924Z,4.48
2024-02-09T23:27:49.161Z,4.52
2024-02-09T23:30:16.155Z,4.42
2024-02-09T23:32:44.125Z,4.32
2024-02-09T23:35:13.619Z,4.29
2024-02-09T23:37:42.458Z,4.34
2024-02-09T23:40:11.194Z,4.40
2024-02-09T23:42:39.655Z,4.36
2024-02-09T23:45:07.161Z,4.37
2024-02-09T23:47:35.221Z,4.09
2024-02-09T23:50:06.045Z,4.17
2024-02-09T23:52:33.297Z,4.18
2024-02-09T23:55:00.316Z,4.19
2024-02-09T23:57:28.864Z,4.26
2024-02-09T23:59:55.962Z,4.34
